Time;durP1;ratioP1;P1;durP2;ratioP2;P2;SDS_P1;SDS_P2;PMS_P1;PMS_P2;Temp;Humidity;BMP_temperature;BMP_pressure;BME280_temperature;BME280_humidity;BME280_pressure;Samples;Min_cycle;Max_cycle;Signal;HPM_P1;HPM_P2
2022/07/24 00:00:08;;;;;;;26.02;18.40;;;;;;;;;;4972054;28;20054;-74
2022/07/24 00:02:34;;;;;;;27.10;18.98;;;;;;;;;;4970283;28;20113;-76
2022/07/24 00:05:01;;;;;;;32.88;19.30;;;;;;;;;;4970554;28;20078;-74
2022/07/24 00:07:27;;;;;;;25.80;18.48;;;;;;;;;;4970933;28;20030;-75
2022/07/24 00:09:53;;;;;;;28.95;18.60;;;;;;;;;;4972149;28;20030;-75
2022/07/24 00:12:19;;;;;;;31.10;19.67;;;;;;;;;;4972196;28;20026;-74
2022/07/24 00:14:45;;;;;;;29.10;19.65;;;;;;;;;;4972056;28;20031;-76
2022/07/24 00:17:10;;;;;;;30.90;19.30;;;;;;;;;;4974025;28;20027;-74
2022/07/24 00:19:35;;;;;;;29.38;18.90;;;;;;;;;;4974115;28;20251;-75
2022/07/24 00:22:02;;;;;;;30.58;19.40;;;;;;;;;;4974521;28;20135;-74
2022/07/24 00:24:28;;;;;;;29.70;20.77;;;;;;;;;;4974102;28;20384;-75
2022/07/24 00:26:53;;;;;;;29.80;20.05;;;;;;;;;;4974065;28;20029;-75
2022/07/24 00:29:19;;;;;;;26.92;19.35;;;;;;;;;;4975896;28;20327;-75
2022/07/24 00:31:44;;;;;;;29.20;19.45;;;;;;;;;;4990836;28;20034;-75
2022/07/24 00:34:10;;;;;;;29.00;19.73;;;;;;;;;;4975642;28;20475;-75
2022/07/24 00:36:35;;;;;;;34.92;20.58;;;;;;;;;;4975281;28;20472;-74
2022/07/24 00:39:01;;;;;;;32.63;19.20;;;;;;;;;;4975182;28;20452;-75
2022/07/24 00:41:27;;;;;;;26.70;19.48;;;;;;;;;;4974023;28;20050;-75
2022/07/24 00:44:19;;;;;;;30.38;19.48;;;;;;;;;;4975325;28;20159;-74
2022/07/24 00:46:46;;;;;;;29.52;18.70;;;;;;;;;;4972484;28;20042;-76
2022/07/24 00:49:16;;;;;;;36.25;19.92;;;;;;;;;;4973981;28;20066;-75
2022/07/24 00:51:43;;;;;;;30.88;19.65;;;;;;;;;;4973908;28;20452;-74
2022/07/24 00:54:11;;;;;;;30.13;19.63;;;;;;;;;;4973952;28;20491;-76
2022/07/24 00:56:37;;;;;;;30.83;19.88;;;;;;;;;;4973582;28;20483;-75
2022/07/24 00:59:03;;;;;;;26.38;17.75;;;;;;;;;;4975923;28;20041;-75
2022/07/24 01:01:29;;;;;;;30.80;19.40;;;;;;;;;;4975899;28;20515;-76
2022/07/24 01:03:56;;;;;;;27.85;19.73;;;;;;;;;;4975281;28;20117;-75
2022/07/24 01:06:22;;;;;;;28.02;19.73;;;;;;;;;;4989977;28;20025;-75
2022/07/24 01:08:48;;;;;;;32.80;20.90;;;;;;;;;;4973344;28;20031;-75
2022/07/24 01:11:14;;;;;;;28.40;19.50;;;;;;;;;;4974722;28;20438;-75
2022/07/24 01:13:40;;;;;;;28.48;19.25;;;;;;;;;;4974469;28;20434;-75
2022/07/24 01:16:07;;;;;;;30.75;20.88;;;;;;;;;;4974732;28;20034;-75
2022/07/24 01:18:33;;;;;;;32.30;20.20;;;;;;;;;;4975189;28;20471;-75
2022/07/24 01:20:59;;;;;;;32.50;20.95;;;;;;;;;;4974975;28;20034;-75
2022/07/24 01:23:24;;;;;;;31.23;19.67;;;;;;;;;;4974884;28;20109;-75
2022/07/24 01:25:51;;;;;;;33.42;21.48;;;;;;;;;;4973719;28;20251;-75
2022/07/24 01:28:17;;;;;;;35.47;21.23;;;;;;;;;;4974268;28;20062;-75
2022/07/24 01:30:43;;;;;;;31.33;20.83;;;;;;;;;;4973080;28;20549;-74
2022/07/24 01:33:09;;;;;;;35.03;21.83;;;;;;;;;;4974527;28;20068;-75
2022/07/24 01:35:34;;;;;;;33.47;21.65;;;;;;;;;;4973338;28;20190;-75
2022/07/24 01:38:00;;;;;;;37.15;21.58;;;;;;;;;;4973114;28;20026;-74
2022/07/24 01:40:26;;;;;;;37.38;20.88;;;;;;;;;;4974462;28;20494;-74
2022/07/24 01:42:51;;;;;;;36.83;22.65;;;;;;;;;;4972969;28;20058;-74
2022/07/24 01:45:17;;;;;;;34.47;20.55;;;;;;;;;;4974694;28;20026;-75
2022/07/24 01:47:43;;;;;;;36.20;22.10;;;;;;;;;;4973274;28;20390;-75
2022/07/24 01:50:10;;;;;;;37.88;21.58;;;;;;;;;;4972949;28;20032;-75
2022/07/24 01:52:37;;;;;;;36.30;21.95;;;;;;;;;;4973894;28;20059;-74
2022/07/24 01:55:03;;;;;;;42.10;22.05;;;;;;;;;;4973801;28;20090;-75
2022/07/24 01:57:29;;;;;;;38.45;21.75;;;;;;;;;;4973999;28;20027;-75
2022/07/24 01:59:54;;;;;;;37.38;22.10;;;;;;;;;;4973853;28;20031;-75
2022/07/24 02:02:20;;;;;;;34.72;21.63;;;;;;;;;;4973739;28;20033;-75
2022/07/24 02:04:45;;;;;;;38.75;22.73;;;;;;;;;;4973494;28;20041;-75
2022/07/24 02:07:11;;;;;;;36.03;21.02;;;;;;;;;;4972117;28;20113;-75
2022/07/24 02:09:36;;;;;;;34.67;21.65;;;;;;;;;;4974281;28;20463;-75
2022/07/24 02:12:02;;;;;;;37.20;22.50;;;;;;;;;;4972501;28;20030;-75
2022/07/24 02:14:28;;;;;;;41.30;22.88;;;;;;;;;;4974122;28;20542;-75
2022/07/24 02:16:53;;;;;;;40.55;21.27;;;;;;;;;;4972090;28;20331;-75
2022/07/24 02:19:18;;;;;;;35.65;21.00;;;;;;;;;;4972610;28;20031;-75
2022/07/24 02:21:44;;;;;;;36.97;22.20;;;;;;;;;;4971916;28;20066;-76
2022/07/24 02:24:09;;;;;;;37.28;21.70;;;;;;;;;;4972959;28;20062;-75
2022/07/24 02:26:35;;;;;;;33.65;21.15;;;;;;;;;;4973933;28;20039;-75
2022/07/24 02:29:00;;;;;;;36.03;21.02;;;;;;;;;;4973802;28;20035;-76
2022/07/24 02:31:26;;;;;;;30.25;19.75;;;;;;;;;;4973807;28;20023;-76
2022/07/24 02:33:51;;;;;;;36.08;21.00;;;;;;;;;;4972741;28;20026;-76
2022/07/24 02:36:17;;;;;;;36.20;21.05;;;;;;;;;;4974456;28;20489;-75
2022/07/24 02:38:43;;;;;;;37.30;22.02;;;;;;;;;;4972205;28;20364;-76
2022/07/24 02:41:08;;;;;;;39.05;21.38;;;;;;;;;;4973955;28;20037;-76
2022/07/24 02:43:34;;;;;;;39.33;21.35;;;;;;;;;;4972113;28;20037;-75
2022/07/24 02:45:59;;;;;;;38.40;22.77;;;;;;;;;;4972199;28;20074;-76
2022/07/24 02:48:25;;;;;;;40.65;21.80;;;;;;;;;;4972776;28;20545;-75
2022/07/24 02:50:50;;;;;;;40.38;23.42;;;;;;;;;;4988289;28;20055;-76
2022/07/24 02:53:16;;;;;;;39.47;23.17;;;;;;;;;;4972590;28;20380;-76
2022/07/24 02:55:42;;;;;;;39.20;23.08;;;;;;;;;;4973405;28;20035;-75
2022/07/24 02:58:07;;;;;;;47.15;23.50;;;;;;;;;;4973211;28;20023;-75
2022/07/24 03:00:33;;;;;;;41.17;23.15;;;;;;;;;;4973214;28;20034;-75
2022/07/24 03:02:59;;;;;;;36.30;22.33;;;;;;;;;;4971420;28;20035;-75
2022/07/24 03:05:25;;;;;;;40.05;23.20;;;;;;;;;;4972710;28;20071;-76
2022/07/24 03:07:50;;;;;;;36.78;22.40;;;;;;;;;;4971798;28;20062;-75
2022/07/24 03:10:16;;;;;;;44.85;23.30;;;;;;;;;;4972803;28;20034;-75
2022/07/24 03:12:42;;;;;;;40.50;23.52;;;;;;;;;;4972820;28;20518;-76
2022/07/24 03:15:09;;;;;;;39.85;21.15;;;;;;;;;;4971228;28;20037;-75
2022/07/24 03:17:34;;;;;;;44.25;24.35;;;;;;;;;;4971407;28;20031;-75
2022/07/24 03:20:00;;;;;;;37.13;22.38;;;;;;;;;;4971531;28;20039;-76
2022/07/24 03:22:25;;;;;;;33.22;20.42;;;;;;;;;;4971397;28;20549;-75
2022/07/24 03:24:51;;;;;;;39.25;21.65;;;;;;;;;;4972522;28;20497;-76
2022/07/24 03:27:18;;;;;;;32.83;19.58;;;;;;;;;;4972738;28;20053;-75
2022/07/24 03:29:43;;;;;;;34.80;20.20;;;;;;;;;;4972724;28;20038;-75
2022/07/24 03:32:09;;;;;;;35.17;21.30;;;;;;;;;;4973586;28;20050;-76
2022/07/24 03:34:34;;;;;;;34.45;20.50;;;;;;;;;;4971077;28;20038;-75
2022/07/24 03:37:00;;;;;;;31.73;19.40;;;;;;;;;;4972093;28;20352;-75
2022/07/24 03:39:25;;;;;;;32.53;17.98;;;;;;;;;;4972483;28;20039;-75
2022/07/24 03:41:51;;;;;;;30.80;18.80;;;;;;;;;;4971079;28;20069;-75
2022/07/24 03:44:16;;;;;;;34.78;19.98;;;;;;;;;;4972280;28;20039;-76
2022/07/24 03:46:42;;;;;;;32.22;19.15;;;;;;;;;;4986342;28;20644;-75
2022/07/24 03:49:07;;;;;;;32.80;18.80;;;;;;;;;;4970707;28;20065;-74
2022/07/24 03:51:34;;;;;;;28.42;17.88;;;;;;;;;;4971480;28;20055;-75
2022/07/24 03:54:01;;;;;;;25.80;17.35;;;;;;;;;;4971790;28;20034;-74
2022/07/24 03:56:28;;;;;;;27.95;17.73;;;;;;;;;;4970477;28;20406;-74
2022/07/24 03:58:54;;;;;;;29.33;19.20;;;;;;;;;;4970697;28;20390;-74
2022/07/24 04:01:20;;;;;;;29.77;20.02;;;;;;;;;;4971739;28;20084;-74
2022/07/24 04:03:46;;;;;;;37.75;18.85;;;;;;;;;;4970695;28;20399;-75
2022/07/24 04:06:11;;;;;;;30.67;18.25;;;;;;;;;;4971501;28;20030;-75
2022/07/24 04:08:37;;;;;;;34.03;18.92;;;;;;;;;;4971701;28;20027;-75
2022/07/24 04:11:02;;;;;;;29.77;19.42;;;;;;;;;;4971322;28;20102;-75
2022/07/24 04:13:29;;;;;;;29.13;17.75;;;;;;;;;;4986630;28;20031;-75
2022/07/24 04:15:56;;;;;;;28.52;17.42;;;;;;;;;;4969912;28;20029;-75
2022/07/24 04:18:22;;;;;;;26.90;17.10;;;;;;;;;;4970297;28;20046;-76
2022/07/24 04:20:48;;;;;;;26.95;16.63;;;;;;;;;;4970428;28;20057;-76
2022/07/24 04:23:14;;;;;;;31.48;18.95;;;;;;;;;;4970035;28;20027;-75
2022/07/24 04:25:39;;;;;;;32.70;18.40;;;;;;;;;;4970328;28;20026;-75
2022/07/24 04:28:05;;;;;;;35.30;19.58;;;;;;;;;;4969812;28;20122;-74
2022/07/24 04:30:30;;;;;;;31.35;18.50;;;;;;;;;;4971312;28;20057;-75
2022/07/24 04:32:56;;;;;;;27.67;16.85;;;;;;;;;;4970504;28;20126;-75
2022/07/24 04:35:23;;;;;;;33.55;19.35;;;;;;;;;;4970854;28;20030;-76
2022/07/24 04:37:48;;;;;;;29.85;18.17;;;;;;;;;;4971359;28;20019;-75
2022/07/24 04:40:14;;;;;;;30.17;17.92;;;;;;;;;;4971183;28;20053;-75
2022/07/24 04:42:40;;;;;;;30.27;18.88;;;;;;;;;;4972317;28;20077;-74
2022/07/24 04:45:09;;;;;;;28.88;18.20;;;;;;;;;;4972273;28;20475;-73
2022/07/24 04:47:35;;;;;;;33.03;18.83;;;;;;;;;;4970789;28;20121;-75
2022/07/24 04:50:01;;;;;;;29.60;19.15;;;;;;;;;;4971728;28;20026;-75
2022/07/24 04:52:27;;;;;;;31.05;18.42;;;;;;;;;;4971163;28;20057;-75
2022/07/24 04:54:52;;;;;;;23.83;16.75;;;;;;;;;;4970281;28;20414;-75
2022/07/24 04:57:18;;;;;;;28.10;18.42;;;;;;;;;;4971992;28;20110;-75
2022/07/24 04:59:43;;;;;;;33.78;19.20;;;;;;;;;;4971742;28;20106;-76
2022/07/24 05:02:09;;;;;;;27.95;17.08;;;;;;;;;;4970462;28;20386;-76
2022/07/24 05:04:34;;;;;;;34.20;19.17;;;;;;;;;;4974326;28;20026;-75
2022/07/24 05:07:01;;;;;;;29.85;18.85;;;;;;;;;;4975149;28;20027;-76
2022/07/24 05:09:27;;;;;;;25.77;16.42;;;;;;;;;;4974185;28;20482;-76
2022/07/24 05:11:53;;;;;;;29.60;18.67;;;;;;;;;;4975307;28;20031;-77
2022/07/24 05:14:18;;;;;;;33.42;19.30;;;;;;;;;;4973413;28;20054;-75
2022/07/24 05:16:44;;;;;;;30.33;18.38;;;;;;;;;;4973883;28;20027;-75
2022/07/24 05:19:09;;;;;;;28.58;17.75;;;;;;;;;;4973858;28;20512;-76
2022/07/24 05:21:35;;;;;;;30.90;18.10;;;;;;;;;;4973737;28;20034;-75
2022/07/24 05:24:01;;;;;;;29.48;18.45;;;;;;;;;;4974513;28;20066;-76
2022/07/24 05:26:31;;;;;;;30.63;18.60;;;;;;;;;;4973423;28;20092;-76
2022/07/24 05:28:59;;;;;;;29.75;18.58;;;;;;;;;;4973154;28;20030;-75
2022/07/24 05:31:25;;;;;;;29.42;18.98;;;;;;;;;;4974732;28;20027;-74
2022/07/24 05:33:51;;;;;;;30.17;19.25;;;;;;;;;;4974491;28;20479;-75
2022/07/24 05:36:17;;;;;;;37.00;19.00;;;;;;;;;;4974667;28;20568;-74
2022/07/24 05:38:43;;;;;;;29.92;18.55;;;;;;;;;;4973643;28;20074;-74
2022/07/24 05:41:10;;;;;;;31.08;20.30;;;;;;;;;;4974607;28;20501;-75
2022/07/24 05:43:35;;;;;;;34.42;20.45;;;;;;;;;;4973738;28;20110;-75
2022/07/24 05:46:01;;;;;;;31.48;20.00;;;;;;;;;;4974361;28;20174;-75
2022/07/24 05:48:26;;;;;;;34.17;19.23;;;;;;;;;;4973815;28;20035;-75
2022/07/24 05:50:52;;;;;;;34.05;21.15;;;;;;;;;;4974531;28;20046;-75
2022/07/24 05:53:17;;;;;;;33.65;18.92;;;;;;;;;;4974375;28;20034;-75
2022/07/24 05:55:43;;;;;;;34.47;20.90;;;;;;;;;;4972814;28;20290;-75
2022/07/24 05:58:08;;;;;;;40.53;20.27;;;;;;;;;;4973314;28;20031;-75
2022/07/24 06:00:34;;;;;;;30.83;19.88;;;;;;;;;;4972701;28;20033;-76
2022/07/24 06:02:59;;;;;;;31.52;19.98;;;;;;;;;;4973085;28;20506;-75
2022/07/24 06:05:25;;;;;;;34.08;20.10;;;;;;;;;;4973287;28;20022;-76
2022/07/24 06:07:50;;;;;;;30.90;18.70;;;;;;;;;;4973199;28;20073;-76
2022/07/24 06:10:16;;;;;;;71.45;24.00;;;;;;;;;;4972801;28;20031;-76
2022/07/24 06:12:41;;;;;;;34.38;19.58;;;;;;;;;;4974444;28;20022;-76
2022/07/24 06:15:08;;;;;;;37.10;20.48;;;;;;;;;;4971572;28;20479;-75
2022/07/24 06:17:33;;;;;;;31.92;20.35;;;;;;;;;;4972921;28;20368;-75
2022/07/24 06:19:59;;;;;;;35.80;20.48;;;;;;;;;;4972926;28;20030;-76
2022/07/24 06:22:24;;;;;;;33.03;19.98;;;;;;;;;;4972636;28;20113;-76
2022/07/24 06:24:50;;;;;;;27.83;19.10;;;;;;;;;;4954629;28;20031;-77
2022/07/24 06:27:16;;;;;;;34.90;19.42;;;;;;;;;;4954457;28;20034;-76
2022/07/24 06:29:41;;;;;;;41.22;20.85;;;;;;;;;;4954397;28;20027;-75
2022/07/24 06:32:07;;;;;;;33.38;20.33;;;;;;;;;;4954058;28;20078;-76
2022/07/24 06:34:34;;;;;;;35.28;18.88;;;;;;;;;;4954287;28;20094;-75
2022/07/24 06:36:59;;;;;;;35.20;18.98;;;;;;;;;;4968391;28;20023;-75
2022/07/24 06:39:24;;;;;;;33.47;18.55;;;;;;;;;;4952110;28;20031;-76
2022/07/24 06:41:50;;;;;;;28.20;17.50;;;;;;;;;;4968679;28;20023;-75
2022/07/24 06:44:15;;;;;;;31.75;18.40;;;;;;;;;;4953677;28;20043;-74
2022/07/24 06:46:41;;;;;;;27.42;17.77;;;;;;;;;;4953972;28;20023;-75
2022/07/24 06:49:06;;;;;;;41.47;18.35;;;;;;;;;;4968352;28;20030;-75
2022/07/24 06:51:32;;;;;;;26.90;17.48;;;;;;;;;;4954266;28;20388;-74
2022/07/24 06:53:57;;;;;;;25.98;16.92;;;;;;;;;;4953101;29;20024;-75
2022/07/24 06:56:22;;;;;;;26.33;17.05;;;;;;;;;;4954862;28;20069;-75
2022/07/24 06:58:49;;;;;;;25.83;17.13;;;;;;;;;;4969496;28;20135;-76
2022/07/24 07:01:15;;;;;;;28.23;17.75;;;;;;;;;;4954084;28;20350;-76
2022/07/24 07:03:42;;;;;;;29.95;17.42;;;;;;;;;;4954404;28;20530;-77
2022/07/24 07:06:08;;;;;;;28.70;17.40;;;;;;;;;;4952594;28;20030;-75
2022/07/24 07:08:33;;;;;;;34.03;17.15;;;;;;;;;;4954468;28;20027;-74
2022/07/24 07:10:59;;;;;;;23.90;15.18;;;;;;;;;;4953282;28;20023;-76
2022/07/24 07:13:24;;;;;;;23.92;16.50;;;;;;;;;;4954520;28;20035;-74
2022/07/24 07:15:50;;;;;;;24.55;15.10;;;;;;;;;;4953060;29;20038;-74
2022/07/24 07:18:15;;;;;;;22.05;14.73;;;;;;;;;;4952912;29;20079;-76
2022/07/24 07:20:41;;;;;;;23.60;15.43;;;;;;;;;;4954055;28;20035;-76
2022/07/24 07:23:06;;;;;;;23.55;14.32;;;;;;;;;;4954085;28;20031;-74
2022/07/24 07:25:32;;;;;;;22.85;14.40;;;;;;;;;;4952937;28;20030;-75
2022/07/24 07:27:57;;;;;;;22.98;14.90;;;;;;;;;;4953882;28;20114;-76
2022/07/24 07:30:23;;;;;;;55.22;17.80;;;;;;;;;;4954408;28;20023;-75
2022/07/24 07:32:48;;;;;;;23.10;14.25;;;;;;;;;;4953070;28;20051;-75
2022/07/24 07:35:14;;;;;;;20.23;13.65;;;;;;;;;;4952321;29;20031;-77
2022/07/24 07:37:39;;;;;;;26.92;17.63;;;;;;;;;;4968865;28;20480;-75
2022/07/24 07:40:05;;;;;;;22.45;14.05;;;;;;;;;;4954691;28;20042;-75
2022/07/24 07:42:31;;;;;;;18.17;12.77;;;;;;;;;;4954515;28;20023;-77
2022/07/24 07:44:56;;;;;;;21.48;13.82;;;;;;;;;;4954547;28;20506;-76
2022/07/24 07:47:22;;;;;;;25.08;14.15;;;;;;;;;;4952832;28;20558;-75
2022/07/24 07:49:47;;;;;;;23.70;13.93;;;;;;;;;;4953608;29;20038;-75
2022/07/24 07:52:13;;;;;;;24.23;16.40;;;;;;;;;;4952373;29;20047;-74
2022/07/24 07:54:38;;;;;;;22.20;13.60;;;;;;;;;;4953199;28;20027;-77
2022/07/24 07:57:04;;;;;;;17.90;12.77;;;;;;;;;;4953301;29;20122;-77
2022/07/24 07:59:29;;;;;;;27.10;15.35;;;;;;;;;;4969189;28;20539;-76
2022/07/24 08:01:55;;;;;;;16.25;11.25;;;;;;;;;;4968907;28;20023;-75
2022/07/24 08:04:20;;;;;;;19.05;12.50;;;;;;;;;;4969000;28;20038;-75
2022/07/24 08:06:46;;;;;;;21.85;11.90;;;;;;;;;;4953538;28;20058;-75
2022/07/24 08:09:12;;;;;;;21.17;11.57;;;;;;;;;;4953387;28;20062;-75
2022/07/24 08:11:37;;;;;;;23.67;12.75;;;;;;;;;;4953024;28;20031;-77
2022/07/24 08:14:03;;;;;;;19.50;11.98;;;;;;;;;;4953930;28;20034;-75
2022/07/24 08:16:28;;;;;;;19.10;11.77;;;;;;;;;;4953176;28;20026;-74
2022/07/24 08:18:53;;;;;;;16.80;11.02;;;;;;;;;;4951547;28;20185;-75
2022/07/24 08:21:21;;;;;;;16.25;11.70;;;;;;;;;;4951462;28;20030;-76
2022/07/24 08:23:48;;;;;;;24.48;12.43;;;;;;;;;;4964044;28;20026;-76
2022/07/24 08:26:14;;;;;;;17.25;10.90;;;;;;;;;;4971428;28;20026;-76
2022/07/24 08:28:39;;;;;;;12.85;9.15;;;;;;;;;;4972819;28;20018;-75
2022/07/24 08:31:05;;;;;;;16.73;10.85;;;;;;;;;;4971180;28;20054;-75
2022/07/24 08:33:31;;;;;;;14.25;9.55;;;;;;;;;;4971962;28;20062;-74
2022/07/24 08:35:56;;;;;;;14.20;10.13;;;;;;;;;;4987645;28;20427;-76
2022/07/24 08:38:22;;;;;;;19.85;10.32;;;;;;;;;;4974712;28;20034;-75
2022/07/24 08:40:47;;;;;;;10.98;8.00;;;;;;;;;;4976530;28;20065;-74
2022/07/24 08:43:14;;;;;;;15.88;7.63;;;;;;;;;;4974995;28;20023;-76
2022/07/24 08:45:43;;;;;;;9.68;7.57;;;;;;;;;;4974978;28;20037;-76
2022/07/24 08:48:10;;;;;;;17.75;8.95;;;;;;;;;;4977140;28;20509;-75
2022/07/24 08:50:39;;;;;;;15.02;7.40;;;;;;;;;;4975489;28;20485;-75
2022/07/24 08:53:05;;;;;;;10.25;7.05;;;;;;;;;;4975396;28;20030;-74
2022/07/24 08:55:31;;;;;;;15.27;6.72;;;;;;;;;;4977007;28;20031;-75
2022/07/24 08:57:58;;;;;;;30.77;10.55;;;;;;;;;;4974866;28;20121;-75
2022/07/24 09:00:25;;;;;;;10.45;6.40;;;;;;;;;;4976187;28;20043;-75
2022/07/24 09:02:51;;;;;;;13.18;7.45;;;;;;;;;;4976041;28;20382;-75
2022/07/24 09:05:16;;;;;;;12.15;7.00;;;;;;;;;;4975654;28;20031;-75
2022/07/24 09:07:42;;;;;;;9.65;6.50;;;;;;;;;;4976245;28;20561;-76
2022/07/24 09:10:13;;;;;;;18.95;7.93;;;;;;;;;;4976181;28;20049;-74
2022/07/24 09:12:42;;;;;;;8.90;6.80;;;;;;;;;;4974967;28;20027;-75
2022/07/24 09:15:20;;;;;;;18.63;8.93;;;;;;;;;;4990853;28;20031;-76
2022/07/24 09:17:52;;;;;;;7.78;6.03;;;;;;;;;;4976526;28;20042;-76
2022/07/24 09:20:19;;;;;;;8.00;5.47;;;;;;;;;;4991509;28;20379;-74
2022/07/24 09:22:45;;;;;;;51.55;17.45;;;;;;;;;;4974896;28;20049;-75
2022/07/24 09:25:17;;;;;;;10.32;6.90;;;;;;;;;;4974401;28;20035;-75
2022/07/24 09:27:55;;;;;;;6.28;5.68;;;;;;;;;;4975611;28;20368;-75
2022/07/24 09:30:28;;;;;;;25.95;9.27;;;;;;;;;;4975768;28;20022;-75
2022/07/24 09:33:00;;;;;;;9.23;6.90;;;;;;;;;;4974634;28;20034;-76
2022/07/24 09:35:34;;;;;;;9.43;6.30;;;;;;;;;;4976504;28;20169;-75
2022/07/24 09:38:02;;;;;;;14.35;7.53;;;;;;;;;;4975685;28;20030;-75
2022/07/24 09:40:34;;;;;;;11.68;6.47;;;;;;;;;;4976395;28;20392;-76
2022/07/24 09:43:11;;;;;;;;;;;;;;;;;;4975143;28;20057;-75
2022/07/24 09:45:57;;;;;;;15.52;7.07;;;;;;;;;;4974536;28;19922;-75
2022/07/24 09:48:53;;;;;;;10.57;6.07;;;;;;;;;;4974188;28;20039;-75
2022/07/24 09:51:19;;;;;;;11.27;6.45;;;;;;;;;;4973559;28;20063;-75
2022/07/24 09:53:46;;;;;;;10.45;6.50;;;;;;;;;;4975714;28;20447;-75
2022/07/24 09:56:16;;;;;;;10.50;6.32;;;;;;;;;;4973014;28;20436;-75
2022/07/24 09:58:53;;;;;;;12.32;7.07;;;;;;;;;;4973751;28;20069;-76
2022/07/24 10:01:21;;;;;;;8.73;7.30;;;;;;;;;;4974910;28;20035;-75
2022/07/24 10:03:48;;;;;;;10.95;7.25;;;;;;;;;;4974187;28;20034;-76
2022/07/24 10:06:17;;;;;;;12.90;6.90;;;;;;;;;;4974223;28;20023;-76
2022/07/24 10:08:46;;;;;;;15.45;7.78;;;;;;;;;;4973865;28;20031;-75
2022/07/24 10:11:12;;;;;;;10.88;7.15;;;;;;;;;;4973286;28;20031;-75
2022/07/24 10:13:38;;;;;;;12.70;7.90;;;;;;;;;;4973878;28;20058;-75
2022/07/24 10:16:13;;;;;;;15.00;8.18;;;;;;;;;;4972948;28;20461;-74
2022/07/24 10:18:50;;;;;;;9.02;7.40;;;;;;;;;;4975986;28;20027;-76
2022/07/24 10:21:23;;;;;;;9.45;7.20;;;;;;;;;;4974826;28;20553;-75
2022/07/24 10:24:07;;;;;;;12.07;7.15;;;;;;;;;;4974260;28;20027;-76
2022/07/24 10:26:49;;;;;;;9.40;6.43;;;;;;;;;;4973328;28;20030;-75
2022/07/24 10:29:20;;;;;;;12.80;7.15;;;;;;;;;;4989817;28;20053;-75
2022/07/24 10:31:52;;;;;;;8.30;7.28;;;;;;;;;;4974556;28;20022;-75
2022/07/24 10:34:23;;;;;;;10.30;7.30;;;;;;;;;;4974463;28;20069;-75
2022/07/24 10:37:03;;;;;;;12.10;6.32;;;;;;;;;;4973265;28;20030;-76
2022/07/24 10:39:38;;;;;;;8.80;6.57;;;;;;;;;;4973468;28;20026;-75
2022/07/24 10:42:05;;;;;;;10.57;7.20;;;;;;;;;;4972957;28;20052;-78
2022/07/24 10:44:32;;;;;;;12.07;7.65;;;;;;;;;;4972630;28;20039;-76
2022/07/24 10:47:13;;;;;;;10.82;8.15;;;;;;;;;;4989843;28;20023;-75
2022/07/24 10:49:46;;;;;;;8.13;6.00;;;;;;;;;;4973152;28;20035;-74
2022/07/24 10:52:23;;;;;;;12.93;6.47;;;;;;;;;;4974201;28;20735;-75
2022/07/24 10:55:26;;;;;;;17.63;7.05;;;;;;;;;;4973282;28;20434;-75
2022/07/24 10:57:59;;;;;;;7.47;6.40;;;;;;;;;;4972410;28;20154;-75
2022/07/24 11:00:34;;;;;;;9.32;6.88;;;;;;;;;;4973172;28;20471;-75
2022/07/24 11:03:03;;;;;;;10.35;6.90;;;;;;;;;;4972563;28;20038;-75
2022/07/24 11:05:30;;;;;;;10.20;6.97;;;;;;;;;;4971556;28;20082;-75
2022/07/24 11:08:22;;;;;;;12.00;7.53;;;;;;;;;;4974056;28;20030;-77
2022/07/24 11:10:54;;;;;;;13.45;6.22;;;;;;;;;;4973951;28;20027;-75
2022/07/24 11:13:32;;;;;;;9.07;6.20;;;;;;;;;;4972477;28;20034;-75
2022/07/24 11:16:18;;;;;;;9.15;6.35;;;;;;;;;;4972551;28;20599;-75
2022/07/24 11:18:47;;;;;;;8.02;5.75;;;;;;;;;;4972324;28;20114;-75
2022/07/24 11:21:33;;;;;;;6.70;5.75;;;;;;;;;;4972871;28;20035;-76
2022/07/24 11:24:19;;;;;;;10.77;6.57;;;;;;;;;;4972472;28;20057;-74
2022/07/24 11:26:59;;;;;;;8.55;6.18;;;;;;;;;;4974190;28;20023;-77
2022/07/24 11:29:27;;;;;;;8.35;6.43;;;;;;;;;;4974175;28;20518;-75
2022/07/24 11:32:00;;;;;;;7.97;6.22;;;;;;;;;;4973859;28;20073;-75
2022/07/24 11:34:27;;;;;;;7.45;5.78;;;;;;;;;;4988491;28;20519;-76
2022/07/24 11:36:54;;;;;;;8.13;5.53;;;;;;;;;;4972165;28;20100;-75
2022/07/24 11:39:26;;;;;;;9.50;6.22;;;;;;;;;;4973571;28;20570;-76
2022/07/24 11:41:54;;;;;;;9.63;6.38;;;;;;;;;;4972573;28;20118;-74
2022/07/24 11:44:26;;;;;;;9.88;5.68;;;;;;;;;;4974742;28;20145;-76
2022/07/24 11:46:52;;;;;;;8.82;6.15;;;;;;;;;;4973245;28;20122;-75
2022/07/24 11:49:17;;;;;;;9.80;5.82;;;;;;;;;;4974868;28;20097;-76
2022/07/24 11:51:49;;;;;;;12.70;6.20;;;;;;;;;;4972510;28;20458;-77
2022/07/24 11:54:22;;;;;;;8.45;6.50;;;;;;;;;;4972659;28;20718;-76
2022/07/24 11:56:48;;;;;;;7.88;6.05;;;;;;;;;;4972188;28;20023;-76
2022/07/24 11:59:28;;;;;;;8.00;5.80;;;;;;;;;;4987857;28;20041;-74
2022/07/24 12:02:12;;;;;;;8.82;6.57;;;;;;;;;;4971168;28;20110;-75
2022/07/24 12:04:39;;;;;;;12.57;5.50;;;;;;;;;;4971405;28;20023;-75
2022/07/24 12:07:11;;;;;;;10.80;6.72;;;;;;;;;;4970813;28;20364;-76
2022/07/24 12:09:48;;;;;;;10.27;6.63;;;;;;;;;;4972423;28;20060;-76
2022/07/24 12:12:22;;;;;;;11.13;6.60;;;;;;;;;;4972010;28;20557;-75
2022/07/24 12:14:48;;;;;;;14.35;5.78;;;;;;;;;;4971003;28;20526;-75
2022/07/24 12:17:14;;;;;;;9.48;5.70;;;;;;;;;;4972514;28;20023;-76
2022/07/24 12:19:50;;;;;;;10.23;6.43;;;;;;;;;;4970671;28;20130;-75
2022/07/24 12:22:15;;;;;;;9.85;5.85;;;;;;;;;;4972342;28;20041;-76
2022/07/24 12:24:41;;;;;;;9.02;5.82;;;;;;;;;;4971311;28;20129;-75
2022/07/24 12:27:07;;;;;;;8.15;5.85;;;;;;;;;;4972269;28;20031;-76
2022/07/24 12:29:42;;;;;;;8.32;6.07;;;;;;;;;;4970562;28;20045;-75
2022/07/24 12:32:17;;;;;;;7.85;5.90;;;;;;;;;;4970921;28;20499;-75
2022/07/24 12:34:44;;;;;;;8.95;5.55;;;;;;;;;;4973077;28;20590;-75
2022/07/24 12:37:22;;;;;;;8.45;5.85;;;;;;;;;;4972125;28;20441;-75
2022/07/24 12:39:50;;;;;;;7.78;5.78;;;;;;;;;;4972645;28;20077;-75
2022/07/24 12:42:17;;;;;;;9.75;6.35;;;;;;;;;;4971135;28;20022;-76
2022/07/24 12:44:44;;;;;;;9.23;6.30;;;;;;;;;;4972697;28;20030;-76
2022/07/24 12:47:11;;;;;;;10.88;6.20;;;;;;;;;;4971216;28;20026;-76
2022/07/24 12:49:46;;;;;;;10.05;7.00;;;;;;;;;;4972242;28;20294;-76
2022/07/24 12:52:24;;;;;;;7.35;6.40;;;;;;;;;;4970655;28;20058;-78
2022/07/24 12:54:51;;;;;;;7.82;5.80;;;;;;;;;;4972598;28;20034;-75
2022/07/24 12:57:20;;;;;;;12.18;6.05;;;;;;;;;;4970444;28;20039;-75
2022/07/24 12:59:48;;;;;;;9.57;5.78;;;;;;;;;;4972035;28;20510;-76
2022/07/24 13:02:25;;;;;;;6.63;5.90;;;;;;;;;;4971797;28;20030;-75
2022/07/24 13:04:54;;;;;;;10.68;5.78;;;;;;;;;;4970737;28;20142;-75
2022/07/24 13:07:24;;;;;;;11.70;6.70;;;;;;;;;;4970801;28;20019;-75
2022/07/24 13:09:51;;;;;;;7.65;5.40;;;;;;;;;;4971290;28;20031;-75
2022/07/24 13:12:17;;;;;;;6.55;5.40;;;;;;;;;;4970977;28;20038;-76
2022/07/24 13:14:43;;;;;;;6.10;5.50;;;;;;;;;;4971017;28;20428;-76
2022/07/24 13:17:11;;;;;;;8.93;5.70;;;;;;;;;;4972267;28;20173;-75
2022/07/24 13:19:39;;;;;;;9.63;5.15;;;;;;;;;;4972737;28;20038;-76
2022/07/24 13:22:04;;;;;;;8.40;4.60;;;;;;;;;;4973177;28;20041;-76
2022/07/24 13:24:32;;;;;;;7.28;6.03;;;;;;;;;;4974492;28;20035;-77
2022/07/24 13:26:59;;;;;;;9.50;5.85;;;;;;;;;;4974553;28;20031;-75
2022/07/24 13:29:27;;;;;;;5.82;4.88;;;;;;;;;;4975429;28;20081;-76
2022/07/24 13:31:53;;;;;;;7.72;5.63;;;;;;;;;;4974299;28;20030;-74
2022/07/24 13:34:19;;;;;;;6.85;5.13;;;;;;;;;;4974429;28;20487;-76
2022/07/24 13:36:45;;;;;;;8.10;5.25;;;;;;;;;;4975682;28;20070;-76
2022/07/24 13:39:10;;;;;;;7.03;4.88;;;;;;;;;;4974223;28;20030;-76
2022/07/24 13:41:36;;;;;;;6.72;5.05;;;;;;;;;;4975838;28;20078;-76
2022/07/24 13:44:04;;;;;;;6.82;4.85;;;;;;;;;;4975343;28;20114;-76
2022/07/24 13:46:31;;;;;;;5.97;5.22;;;;;;;;;;4974085;28;20073;-77
2022/07/24 13:48:59;;;;;;;6.88;5.00;;;;;;;;;;4973818;28;20623;-77
2022/07/24 13:51:24;;;;;;;8.02;5.22;;;;;;;;;;4989522;28;20042;-75
2022/07/24 13:53:50;;;;;;;5.57;5.03;;;;;;;;;;4973862;28;20581;-77
2022/07/24 13:56:16;;;;;;;5.00;4.50;;;;;;;;;;4973773;28;20063;-75
2022/07/24 13:58:43;;;;;;;5.05;4.55;;;;;;;;;;4990265;28;20035;-76
2022/07/24 14:01:09;;;;;;;6.47;4.50;;;;;;;;;;4973714;28;20027;-77
2022/07/24 14:03:36;;;;;;;5.00;4.30;;;;;;;;;;4973256;28;20121;-77
2022/07/24 14:06:03;;;;;;;5.65;4.60;;;;;;;;;;4974591;28;20019;-77
2022/07/24 14:08:28;;;;;;;8.10;4.95;;;;;;;;;;4974427;28;20023;-76
2022/07/24 14:10:54;;;;;;;5.70;4.90;;;;;;;;;;4974092;28;20053;-75
2022/07/24 14:13:19;;;;;;;5.10;4.60;;;;;;;;;;4974799;28;20093;-76
2022/07/24 14:15:45;;;;;;;5.45;4.65;;;;;;;;;;4974653;28;20022;-75
2022/07/24 14:18:12;;;;;;;5.78;4.68;;;;;;;;;;4974623;28;20031;-75
2022/07/24 14:20:37;;;;;;;7.25;5.18;;;;;;;;;;4974646;28;20177;-75
2022/07/24 14:23:04;;;;;;;4.55;4.03;;;;;;;;;;4975204;28;20038;-76
2022/07/24 14:25:30;;;;;;;5.47;4.35;;;;;;;;;;4974208;28;20086;-76
2022/07/24 14:27:56;;;;;;;6.75;4.32;;;;;;;;;;4975475;28;20026;-76